Higgins Bay, New York
Current Conditions -  °F | °C
As of 2:15 PM on Thursday 18 Dec 2014 (Local Time) from KNY0 Reporting Station
Overcast Overcast  
Wind Chill: 21°   Ceiling: 1500
Heat Index: 31°   Visibility: 10mi
Dew Point: 26°   Wind: 13mph
Humidity: 82%   Direction: 290°WNW
Pressure: 29.88"   Gusts: 18mph
Location:  43.5523°N, 74.4387°W
Report Text: KNY0 181915Z AUTO 29011G16KT 10SM OVC015 00/M03 A2988 RMK AO2 T10051033
Loading
Personal Weather Stations






























Interactive Weather Map New forecast layout! Learn more

10-Day Weather Forecast

Advertisements
Track Severe Weather on mobile